Time;durP1;ratioP1;P1;durP2;ratioP2;P2;SDS_P1;SDS_P2;PMS_P1;PMS_P2;Temp;Humidity;BMP_temperature;BMP_pressure;BME280_temperature;BME280_humidity;BME280_pressure;Samples;Min_cycle;Max_cycle;Signal;HPM_P1;HPM_P2
2023/04/30 00:00:28;;;;;;;2.83;0.88;;;;;;;;;;1021154;29;20062;-74
2023/04/30 00:00:59;;;;;;;2.03;1.15;;;;;;;;;;1020216;29;20023;-74
2023/04/30 00:01:30;;;;;;;12.27;2.17;;;;;;;;;;1021394;29;20023;-74
2023/04/30 00:02:00;;;;;;;2.03;1.33;;;;;;;;;;1021211;29;20118;-74
2023/04/30 00:02:31;;;;;;;1.27;0.45;;;;;;;;;;1021823;29;20487;-75
2023/04/30 00:03:01;;;;;;;2.28;1.42;;;;;;;;;;1021571;29;20502;-75
2023/04/30 00:03:31;;;;;;;1.65;0.77;;;;;;;;;;1021373;29;20475;-75
2023/04/30 00:04:02;;;;;;;5.40;1.48;;;;;;;;;;1016964;29;20744;-75
2023/04/30 00:04:32;;;;;;;8.63;1.75;;;;;;;;;;1018129;29;20464;-75
2023/04/30 00:05:03;;;;;;;2.25;1.00;;;;;;;;;;1017768;29;20038;-73
2023/04/30 00:05:34;;;;;;;1.00;0.47;;;;;;;;;;1017608;29;20462;-75
2023/04/30 00:06:04;;;;;;;0.30;0.30;;;;;;;;;;1021408;29;20497;-74
2023/04/30 00:06:35;;;;;;;9.10;0.80;;;;;;;;;;1020940;29;20450;-74
2023/04/30 00:07:05;;;;;;;3.00;1.30;;;;;;;;;;1020966;29;20500;-74
2023/04/30 00:07:36;;;;;;;2.00;0.50;;;;;;;;;;1021210;29;20028;-75
2023/04/30 00:08:06;;;;;;;6.80;0.55;;;;;;;;;;1019936;29;20015;-74
2023/04/30 00:08:37;;;;;;;2.65;1.48;;;;;;;;;;1017094;29;20039;-74
2023/04/30 00:09:07;;;;;;;1.73;0.68;;;;;;;;;;1015307;29;20024;-74
2023/04/30 00:09:38;;;;;;;0.50;0.50;;;;;;;;;;1015498;29;20031;-75
2023/04/30 00:10:09;;;;;;;3.13;1.27;;;;;;;;;;1015220;29;20034;-75
2023/04/30 00:10:40;;;;;;;0.20;0.20;;;;;;;;;;1010625;29;20025;-74
2023/04/30 00:11:10;;;;;;;2.33;1.35;;;;;;;;;;1015281;29;20507;-74
2023/04/30 00:11:41;;;;;;;2.35;1.10;;;;;;;;;;1014552;29;20020;-74
2023/04/30 00:12:11;;;;;;;0.40;0.40;;;;;;;;;;1019310;29;20043;-74
2023/04/30 00:12:42;;;;;;;12.30;3.17;;;;;;;;;;1022716;29;20070;-75
2023/04/30 00:13:12;;;;;;;0.25;0.25;;;;;;;;;;1021834;29;20163;-74
2023/04/30 00:13:43;;;;;;;10.00;0.60;;;;;;;;;;1021252;29;20027;-74
2023/04/30 00:14:13;;;;;;;3.53;1.08;;;;;;;;;;1019957;29;20031;-74
2023/04/30 00:14:44;;;;;;;0.20;0.20;;;;;;;;;;1019901;29;20496;-75
2023/04/30 00:15:14;;;;;;;1.50;1.10;;;;;;;;;;1021662;29;20082;-74
2023/04/30 00:15:45;;;;;;;2.08;1.55;;;;;;;;;;1021059;29;20037;-74
2023/04/30 00:16:15;;;;;;;2.55;1.50;;;;;;;;;;1021452;29;20034;-75
2023/04/30 00:16:46;;;;;;;11.57;1.63;;;;;;;;;;1021551;29;20024;-74
2023/04/30 00:17:16;;;;;;;15.75;1.35;;;;;;;;;;1021725;29;20032;-73
2023/04/30 00:17:47;;;;;;;2.08;0.98;;;;;;;;;;1020929;29;20106;-74
2023/04/30 00:18:17;;;;;;;0.98;0.93;;;;;;;;;;1021413;29;20118;-74
2023/04/30 00:18:48;;;;;;;1.40;0.60;;;;;;;;;;1020812;29;20034;-74
2023/04/30 00:19:18;;;;;;;1.83;1.02;;;;;;;;;;1020883;29;20541;-75
2023/04/30 00:19:49;;;;;;;0.20;0.20;;;;;;;;;;1021243;29;20020;-74
2023/04/30 00:20:20;;;;;;;4.28;1.48;;;;;;;;;;1012993;29;20032;-74
2023/04/30 00:20:52;;;;;;;2.75;0.90;;;;;;;;;;1013874;29;20028;-75
2023/04/30 00:21:22;;;;;;;0.88;0.57;;;;;;;;;;1016768;29;20107;-74
2023/04/30 00:21:53;;;;;;;2.75;1.13;;;;;;;;;;1015437;29;20019;-74
2023/04/30 00:22:23;;;;;;;0.90;0.82;;;;;;;;;;1015347;29;20020;-73
2023/04/30 00:22:54;;;;;;;1.70;0.93;;;;;;;;;;1015326;29;20039;-73
2023/04/30 00:23:25;;;;;;;0.77;0.60;;;;;;;;;;1015492;29;20087;-75
2023/04/30 00:23:55;;;;;;;0.63;0.63;;;;;;;;;;1017148;29;20035;-75
2023/04/30 00:24:26;;;;;;;6.70;1.45;;;;;;;;;;1022429;29;20030;-73
2023/04/30 00:24:57;;;;;;;9.00;1.83;;;;;;;;;;1022153;29;20031;-73
2023/04/30 00:25:27;;;;;;;3.33;0.73;;;;;;;;;;1022289;29;20109;-74
2023/04/30 00:25:58;;;;;;;4.78;0.63;;;;;;;;;;1021621;29;20047;-74
2023/04/30 00:26:28;;;;;;;0.55;0.47;;;;;;;;;;1021218;29;20008;-75
2023/04/30 00:26:59;;;;;;;1.60;1.27;;;;;;;;;;1018285;29;20035;-74
2023/04/30 00:27:30;;;;;;;1.40;1.30;;;;;;;;;;1015717;29;20024;-74
2023/04/30 00:28:01;;;;;;;0.40;0.32;;;;;;;;;;1020010;29;20472;-74
2023/04/30 00:28:31;;;;;;;1.35;0.73;;;;;;;;;;1017894;29;20024;-74
2023/04/30 00:29:02;;;;;;;0.20;0.20;;;;;;;;;;1020252;29;20032;-73
2023/04/30 00:29:32;;;;;;;20.67;1.05;;;;;;;;;;1024137;29;20020;-74
2023/04/30 00:30:03;;;;;;;0.70;0.70;;;;;;;;;;1024577;29;20023;-74
2023/04/30 00:30:33;;;;;;;1.45;0.80;;;;;;;;;;1024129;29;20015;-73
2023/04/30 00:31:07;;;;;;;2.10;1.90;;;;;;;;;;1025629;29;20016;-74
2023/04/30 00:31:38;;;;;;;2.20;1.65;;;;;;;;;;1024834;29;20467;-74
2023/04/30 00:32:08;;;;;;;0.88;0.80;;;;;;;;;;1023545;29;20027;-74
2023/04/30 00:32:39;;;;;;;0.30;0.30;;;;;;;;;;1021386;29;20059;-73
2023/04/30 00:33:10;;;;;;;1.98;1.02;;;;;;;;;;1023268;29;20356;-74
2023/04/30 00:33:40;;;;;;;13.50;1.52;;;;;;;;;;1021226;29;20023;-73
2023/04/30 00:34:11;;;;;;;2.22;0.35;;;;;;;;;;1021954;29;20027;-74
2023/04/30 00:34:41;;;;;;;0.50;0.50;;;;;;;;;;1022187;29;20203;-74
2023/04/30 00:35:12;;;;;;;1.52;1.42;;;;;;;;;;1020397;29;20032;-73
2023/04/30 00:35:43;;;;;;;4.57;1.27;;;;;;;;;;1022734;29;20086;-73
2023/04/30 00:36:13;;;;;;;9.38;0.63;;;;;;;;;;1022624;29;20447;-74
2023/04/30 00:36:43;;;;;;;0.43;0.20;;;;;;;;;;1020890;29;20423;-74
2023/04/30 00:37:14;;;;;;;1.38;1.05;;;;;;;;;;1022169;29;20022;-73
2023/04/30 00:37:45;;;;;;;1.05;0.65;;;;;;;;;;1022100;29;20038;-73
2023/04/30 00:38:15;;;;;;;17.33;1.55;;;;;;;;;;1020140;29;20016;-74
2023/04/30 00:38:45;;;;;;;2.03;1.85;;;;;;;;;;1021487;29;20488;-74
2023/04/30 00:39:16;;;;;;;5.25;1.35;;;;;;;;;;1022340;29;20070;-74
2023/04/30 00:39:47;;;;;;;2.40;1.88;;;;;;;;;;1022307;29;20217;-74
2023/04/30 00:40:17;;;;;;;10.18;1.88;;;;;;;;;;1022601;29;20023;-74
2023/04/30 00:40:48;;;;;;;4.03;1.60;;;;;;;;;;1021560;29;20380;-73
2023/04/30 00:41:20;;;;;;;1.05;0.43;;;;;;;;;;1022596;29;20024;-73
2023/04/30 00:41:50;;;;;;;1.27;0.98;;;;;;;;;;1021433;29;20473;-73
2023/04/30 00:42:21;;;;;;;3.42;0.47;;;;;;;;;;1021871;29;20016;-74
2023/04/30 00:42:54;;;;;;;1.02;1.02;;;;;;;;;;1016652;29;20570;-73
2023/04/30 00:43:24;;;;;;;1.75;0.50;;;;;;;;;;1017940;29;20023;-74
2023/04/30 00:43:55;;;;;;;5.90;1.05;;;;;;;;;;1017652;29;20416;-75
2023/04/30 00:44:25;;;;;;;5.93;0.90;;;;;;;;;;1017691;29;20247;-74
2023/04/30 00:44:56;;;;;;;0.77;0.65;;;;;;;;;;1021510;29;20511;-73
2023/04/30 00:45:26;;;;;;;3.38;0.93;;;;;;;;;;1022791;29;20400;-73
2023/04/30 00:46:00;;;;;;;5.30;1.67;;;;;;;;;;1022031;29;20023;-74
2023/04/30 00:46:30;;;;;;;1.55;0.52;;;;;;;;;;1020229;29;20490;-75
2023/04/30 00:47:01;;;;;;;0.32;0.32;;;;;;;;;;1022173;29;20038;-73
2023/04/30 00:47:31;;;;;;;1.13;0.80;;;;;;;;;;1021455;29;20645;-73
2023/04/30 00:48:02;;;;;;;2.35;1.08;;;;;;;;;;1017829;29;20483;-73
2023/04/30 00:48:32;;;;;;;0.93;0.63;;;;;;;;;;1014154;29;20485;-74
2023/04/30 00:49:03;;;;;;;1.08;0.68;;;;;;;;;;1013398;29;20111;-74
2023/04/30 00:49:34;;;;;;;1.50;1.40;;;;;;;;;;1014340;29;20518;-74
2023/04/30 00:50:05;;;;;;;15.15;2.17;;;;;;;;;;1018710;29;20035;-74
2023/04/30 00:50:35;;;;;;;1.95;0.35;;;;;;;;;;1018504;29;20024;-74
2023/04/30 00:51:06;;;;;;;1.58;0.55;;;;;;;;;;1018803;29;20028;-73
2023/04/30 00:51:39;;;;;;;0.20;0.20;;;;;;;;;;1016762;29;20023;-74
2023/04/30 00:52:10;;;;;;;0.93;0.55;;;;;;;;;;1014161;29;20485;-75
2023/04/30 00:52:41;;;;;;;3.28;2.08;;;;;;;;;;1010740;29;20028;-74
2023/04/30 00:53:11;;;;;;;1.52;0.55;;;;;;;;;;1014054;29;20080;-74
2023/04/30 00:53:43;;;;;;;8.77;1.13;;;;;;;;;;1012924;29;20527;-74
2023/04/30 00:54:13;;;;;;;0.30;0.30;;;;;;;;;;1017713;29;20044;-73
2023/04/30 00:54:44;;;;;;;11.27;2.30;;;;;;;;;;1017869;29;20449;-75
2023/04/30 00:55:15;;;;;;;0.82;0.82;;;;;;;;;;1022067;29;20032;-74
2023/04/30 00:55:47;;;;;;;1.33;0.50;;;;;;;;;;1021746;29;20559;-74
2023/04/30 00:56:17;;;;;;;0.40;0.40;;;;;;;;;;1021601;29;20027;-74
2023/04/30 00:56:48;;;;;;;0.63;0.63;;;;;;;;;;1021877;29;20459;-74
2023/04/30 00:57:19;;;;;;;5.68;1.77;;;;;;;;;;1020965;29;20039;-73
2023/04/30 00:57:50;;;;;;;4.18;2.45;;;;;;;;;;1021631;29;20649;-73
2023/04/30 00:58:21;;;;;;;8.63;0.80;;;;;;;;;;1022137;29;20058;-74
2023/04/30 00:58:55;;;;;;;0.93;0.88;;;;;;;;;;1023267;29;20051;-74
2023/04/30 00:59:26;;;;;;;3.15;1.67;;;;;;;;;;1023330;29;20011;-73
2023/04/30 00:59:57;;;;;;;8.10;0.55;;;;;;;;;;1022887;29;20499;-74
2023/04/30 01:00:27;;;;;;;0.50;0.47;;;;;;;;;;1025009;29;20034;-74
2023/04/30 01:00:58;;;;;;;1.60;1.50;;;;;;;;;;1026523;29;20059;-74
2023/04/30 01:01:28;;;;;;;0.22;0.22;;;;;;;;;;1024043;29;20018;-74
2023/04/30 01:01:59;;;;;;;0.32;0.32;;;;;;;;;;1025062;29;20028;-74
2023/04/30 01:02:30;;;;;;;2.10;2.00;;;;;;;;;;1022724;29;20015;-74
2023/04/30 01:03:00;;;;;;;0.73;0.73;;;;;;;;;;1025447;29;21137;-73
2023/04/30 01:03:31;;;;;;;4.68;0.57;;;;;;;;;;1022272;29;20030;-74
2023/04/30 01:04:02;;;;;;;1.00;0.90;;;;;;;;;;1021846;29;20407;-74
2023/04/30 01:04:32;;;;;;;0.52;0.50;;;;;;;;;;1021620;29;20106;-74
2023/04/30 01:05:03;;;;;;;0.45;0.35;;;;;;;;;;1021526;29;20519;-74
2023/04/30 01:05:34;;;;;;;0.20;0.20;;;;;;;;;;1021447;29;20024;-74
2023/04/30 01:06:04;;;;;;;3.70;2.20;;;;;;;;;;1018096;29;20047;-74
2023/04/30 01:06:35;;;;;;;3.33;0.52;;;;;;;;;;1018186;29;20118;-74
2023/04/30 01:07:06;;;;;;;0.82;0.73;;;;;;;;;;1015342;29;20024;-74
2023/04/30 01:07:45;;;;;;;0.90;0.52;;;;;;;;;;1017915;29;20035;-75
2023/04/30 01:08:15;;;;;;;2.25;0.75;;;;;;;;;;1019427;29;20031;-75
2023/04/30 01:08:47;;;;;;;0.55;0.52;;;;;;;;;;1019918;29;20023;-75
2023/04/30 01:09:17;;;;;;;2.90;0.98;;;;;;;;;;1021292;29;20035;-73
2023/04/30 01:09:48;;;;;;;1.83;1.73;;;;;;;;;;1021692;29;20059;-74
2023/04/30 01:10:20;;;;;;;0.70;0.40;;;;;;;;;;1022515;29;20026;-75
2023/04/30 01:10:57;;;;;;;0.75;0.63;;;;;;;;;;1021849;29;20023;-74
2023/04/30 01:11:42;;;;;;;1.20;0.85;;;;;;;;;;1021623;29;20051;-74
2023/04/30 01:12:17;;;;;;;1.70;0.98;;;;;;;;;;1018880;29;20526;-74
2023/04/30 01:13:19;;;;;;;0.95;0.63;;;;;;;;;;1017995;29;20062;-74
2023/04/30 01:14:07;;;;;;;22.23;2.85;;;;;;;;;;1011644;29;20028;-74
2023/04/30 01:14:43;;;;;;;0.75;0.63;;;;;;;;;;1012854;29;20536;-74
2023/04/30 01:15:20;;;;;;;0.70;0.63;;;;;;;;;;1021152;29;20408;-74
2023/04/30 01:15:50;;;;;;;2.25;0.88;;;;;;;;;;1021668;29;20456;-75
2023/04/30 01:16:35;;;;;;;1.45;0.80;;;;;;;;;;1021836;29;20297;-74
2023/04/30 01:17:08;;;;;;;1.95;1.33;;;;;;;;;;1021499;29;20031;-74
2023/04/30 01:17:56;;;;;;;0.98;0.35;;;;;;;;;;1021803;29;20027;-74
2023/04/30 01:18:28;;;;;;;0.40;0.40;;;;;;;;;;1021226;29;20027;-75
2023/04/30 01:19:08;;;;;;;8.32;2.28;;;;;;;;;;1021776;29;20078;-75
2023/04/30 01:19:39;;;;;;;;;;;;;;;;;;1022533;29;20031;-74
2023/04/30 01:20:10;;;;;;;0.85;0.30;;;;;;;;;;1021068;29;20374;-74
2023/04/30 01:20:47;;;;;;;5.82;1.40;;;;;;;;;;1021059;29;20110;-75
2023/04/30 01:21:21;;;;;;;0.68;0.40;;;;;;;;;;1022064;29;20039;-75
2023/04/30 01:21:51;;;;;;;0.20;0.20;;;;;;;;;;1021310;29;20475;-74
2023/04/30 01:22:25;;;;;;;1.20;0.38;;;;;;;;;;1021997;29;20036;-74
2023/04/30 01:23:02;;;;;;;0.85;0.60;;;;;;;;;;1021504;29;20391;-75
2023/04/30 01:23:41;;;;;;;1.00;0.65;;;;;;;;;;1022029;29;20031;-74
2023/04/30 01:24:43;;;;;;;1.17;0.65;;;;;;;;;;1021560;29;20023;-74
2023/04/30 01:25:14;;;;;;;0.25;0.25;;;;;;;;;;1002521;29;20033;-75
2023/04/30 01:25:57;;;;;;;12.70;0.70;;;;;;;;;;1001731;29;20487;-75
2023/04/30 01:26:33;;;;;;;1.02;0.60;;;;;;;;;;1016821;29;20034;-75
2023/04/30 01:27:28;;;;;;;3.42;1.98;;;;;;;;;;1020814;29;20027;-75
2023/04/30 01:28:02;;;;;;;0.43;0.43;;;;;;;;;;1020541;29;20026;-75
2023/04/30 01:28:35;;;;;;;0.25;0.20;;;;;;;;;;1021180;29;20546;-74
2023/04/30 01:29:05;;;;;;;1.73;0.98;;;;;;;;;;1020474;29;20023;-75
2023/04/30 01:29:37;;;;;;;0.28;0.25;;;;;;;;;;1020649;29;20047;-75
2023/04/30 01:30:08;;;;;;;1.25;1.13;;;;;;;;;;1019013;29;20444;-75
2023/04/30 01:30:39;;;;;;;0.80;0.43;;;;;;;;;;1021791;29;20031;-74
2023/04/30 01:31:11;;;;;;;1.20;0.95;;;;;;;;;;1021495;29;20502;-75
2023/04/30 01:31:42;;;;;;;1.65;0.25;;;;;;;;;;1021014;29;20024;-74
2023/04/30 01:32:13;;;;;;;0.85;0.47;;;;;;;;;;1022381;29;20041;-75
2023/04/30 01:32:43;;;;;;;1.90;0.80;;;;;;;;;;1021988;29;20058;-75
2023/04/30 01:33:14;;;;;;;4.43;1.33;;;;;;;;;;1022328;29;20151;-74
2023/04/30 01:33:45;;;;;;;6.72;0.90;;;;;;;;;;1021788;29;20114;-75
2023/04/30 01:34:15;;;;;;;4.53;1.13;;;;;;;;;;1021960;29;20145;-75
2023/04/30 01:34:46;;;;;;;3.53;1.10;;;;;;;;;;1020944;29;20062;-75
2023/04/30 01:35:16;;;;;;;2.45;0.75;;;;;;;;;;1020899;29;20372;-75
2023/04/30 01:36:01;;;;;;;5.30;2.15;;;;;;;;;;1020291;29;20039;-75
2023/04/30 01:36:53;;;;;;;5.72;1.75;;;;;;;;;;1022396;29;20389;-75
2023/04/30 01:37:30;;;;;;;6.60;1.38;;;;;;;;;;1021261;29;20491;-74
2023/04/30 01:38:10;;;;;;;0.82;0.73;;;;;;;;;;1017775;29;20475;-74
2023/04/30 01:38:41;;;;;;;2.15;1.75;;;;;;;;;;1018124;29;20020;-73
2023/04/30 01:39:17;;;;;;;7.20;2.13;;;;;;;;;;1017886;29;20027;-75
2023/04/30 01:39:53;;;;;;;3.03;2.40;;;;;;;;;;1018798;29;20032;-75
2023/04/30 01:40:27;;;;;;;2.55;0.75;;;;;;;;;;1021010;29;20035;-74
2023/04/30 01:41:06;;;;;;;3.80;1.80;;;;;;;;;;1022464;29;20380;-75
2023/04/30 01:41:56;;;;;;;1.13;0.77;;;;;;;;;;1020467;29;20031;-75
2023/04/30 01:42:51;;;;;;;1.00;0.80;;;;;;;;;;1020888;29;20023;-75
2023/04/30 01:43:31;;;;;;;3.70;0.38;;;;;;;;;;1021981;29;20054;-75
2023/04/30 01:44:09;;;;;;;3.22;1.98;;;;;;;;;;1017192;29;20424;-75
2023/04/30 01:44:55;;;;;;;17.95;1.10;;;;;;;;;;1017209;29;20027;-74
2023/04/30 01:45:34;;;;;;;2.38;1.08;;;;;;;;;;1017547;29;20507;-74
2023/04/30 01:46:11;;;;;;;23.33;1.58;;;;;;;;;;1021073;29;20086;-74
2023/04/30 01:46:43;;;;;;;2.75;0.70;;;;;;;;;;1020656;29;20027;-75
2023/04/30 01:47:28;;;;;;;1.08;0.55;;;;;;;;;;1021173;29;20490;-75
2023/04/30 01:48:25;;;;;;;2.25;0.98;;;;;;;;;;1021998;29;20523;-75
2023/04/30 01:49:04;;;;;;;1.58;0.73;;;;;;;;;;1019897;29;20033;-75
2023/04/30 01:50:01;;;;;;;4.55;2.33;;;;;;;;;;1021067;29;20471;-73
2023/04/30 01:50:50;;;;;;;2.45;0.70;;;;;;;;;;1017340;28;20030;-75
2023/04/30 01:51:25;;;;;;;2.65;0.85;;;;;;;;;;1016815;29;20566;-74
2023/04/30 01:52:02;;;;;;;2.58;0.60;;;;;;;;;;1017025;29;20606;-75
2023/04/30 01:52:39;;;;;;;3.33;1.05;;;;;;;;;;1016971;29;20515;-74
2023/04/30 01:53:23;;;;;;;3.58;2.25;;;;;;;;;;1017548;29;20423;-74
2023/04/30 01:53:56;;;;;;;4.63;0.95;;;;;;;;;;1017398;29;20027;-75
2023/04/30 01:54:40;;;;;;;5.93;1.67;;;;;;;;;;1018109;29;20027;-75
2023/04/30 01:55:13;;;;;;;1.08;0.63;;;;;;;;;;1018972;29;20027;-75
2023/04/30 01:55:55;;;;;;;4.72;1.65;;;;;;;;;;1019424;29;20030;-74
2023/04/30 01:56:37;;;;;;;2.38;1.25;;;;;;;;;;1021999;29;20031;-74
2023/04/30 01:57:12;;;;;;;7.38;3.35;;;;;;;;;;1022077;29;20398;-75
2023/04/30 01:57:47;;;;;;;5.82;3.13;;;;;;;;;;1021583;29;20402;-75
2023/04/30 01:58:19;;;;;;;0.75;0.63;;;;;;;;;;1020817;29;20034;-75
2023/04/30 01:58:51;;;;;;;6.57;1.63;;;;;;;;;;1022119;29;20091;-74
2023/04/30 01:59:22;;;;;;;0.80;0.63;;;;;;;;;;1021726;29;20142;-75
2023/04/30 01:59:52;;;;;;;1.35;0.82;;;;;;;;;;1021669;29;20039;-75
2023/04/30 02:00:24;;;;;;;7.65;1.45;;;;;;;;;;1021999;29;20030;-74
2023/04/30 02:00:55;;;;;;;12.88;0.88;;;;;;;;;;1021490;29;20364;-75
2023/04/30 02:01:26;;;;;;;14.30;3.70;;;;;;;;;;1017169;29;20111;-74
2023/04/30 02:01:56;;;;;;;2.72;1.60;;;;;;;;;;1017695;29;20039;-75
2023/04/30 02:02:27;;;;;;;0.30;0.30;;;;;;;;;;1017522;29;20020;-75
2023/04/30 02:02:57;;;;;;;1.25;0.68;;;;;;;;;;1017604;29;20400;-74
2023/04/30 02:03:28;;;;;;;6.50;1.30;;;;;;;;;;1021909;29;20019;-75
2023/04/30 02:03:58;;;;;;;1.80;1.63;;;;;;;;;;1021145;29;20526;-75
2023/04/30 02:04:29;;;;;;;6.47;1.23;;;;;;;;;;1021111;29;20019;-75
2023/04/30 02:04:59;;;;;;;13.20;1.50;;;;;;;;;;1021610;29;20058;-75
2023/04/30 02:05:30;;;;;;;3.22;1.27;;;;;;;;;;1021376;29;20052;-75
2023/04/30 02:06:00;;;;;;;1.75;1.23;;;;;;;;;;1016637;29;20020;-74
2023/04/30 02:06:31;;;;;;;11.60;1.38;;;;;;;;;;1017840;29;20156;-74
2023/04/30 02:07:02;;;;;;;2.47;1.83;;;;;;;;;;1018637;29;20620;-74
2023/04/30 02:07:40;;;;;;;3.45;0.73;;;;;;;;;;1021756;29;20065;-74
2023/04/30 02:08:10;;;;;;;2.65;1.38;;;;;;;;;;1020693;29;20019;-75
2023/04/30 02:08:40;;;;;;;1.75;0.85;;;;;;;;;;1021731;29;20081;-75
2023/04/30 02:09:11;;;;;;;3.28;1.73;;;;;;;;;;1022692;29;20027;-74
2023/04/30 02:09:41;;;;;;;11.65;1.40;;;;;;;;;;1021282;29;20142;-75
2023/04/30 02:10:12;;;;;;;0.65;0.52;;;;;;;;;;1022032;29;20023;-75
2023/04/30 02:10:43;;;;;;;6.45;0.93;;;;;;;;;;1022090;29;20027;-75
2023/04/30 02:11:13;;;;;;;2.88;0.77;;;;;;;;;;1020573;29;20023;-74
2023/04/30 02:11:44;;;;;;;5.15;0.90;;;;;;;;;;1021374;29;20028;-74
2023/04/30 02:12:14;;;;;;;3.22;1.55;;;;;;;;;;1021719;29;20023;-75
2023/04/30 02:12:45;;;;;;;2.83;1.45;;;;;;;;;;1020844;29;20019;-74
2023/04/30 02:13:16;;;;;;;4.75;2.03;;;;;;;;;;1021138;29;20093;-75
2023/04/30 02:13:46;;;;;;;1.30;0.52;;;;;;;;;;1021883;29;20109;-74
2023/04/30 02:14:17;;;;;;;2.03;0.80;;;;;;;;;;1022139;29;20024;-74
2023/04/30 02:14:47;;;;;;;3.35;0.60;;;;;;;;;;1022112;29;20038;-75
2023/04/30 02:15:18;;;;;;;4.10;1.02;;;;;;;;;;1021757;29;20122;-74
2023/04/30 02:15:48;;;;;;;3.70;0.85;;;;;;;;;;1021322;29;20027;-75
2023/04/30 02:16:19;;;;;;;1.15;0.43;;;;;;;;;;1021483;29;20029;-74
2023/04/30 02:16:50;;;;;;;5.20;1.27;;;;;;;;;;1021273;29;20020;-75
2023/04/30 02:17:20;;;;;;;2.35;2.13;;;;;;;;;;1021989;29;20500;-75
2023/04/30 02:17:51;;;;;;;2.00;1.15;;;;;;;;;;1021412;29;20091;-74
2023/04/30 02:18:21;;;;;;;0.88;0.47;;;;;;;;;;1018470;29;20024;-75
2023/04/30 02:18:52;;;;;;;6.28;0.70;;;;;;;;;;1016969;29;20450;-75
2023/04/30 02:19:22;;;;;;;6.05;0.70;;;;;;;;;;1016992;29;20035;-75
2023/04/30 02:19:52;;;;;;;1.02;0.45;;;;;;;;;;1017481;29;20040;-75
2023/04/30 02:20:23;;;;;;;7.78;0.82;;;;;;;;;;1021806;29;20035;-75
2023/04/30 02:20:53;;;;;;;1.65;0.98;;;;;;;;;;1021066;29;20075;-75
2023/04/30 02:21:24;;;;;;;3.75;0.98;;;;;;;;;;1022068;29;20027;-75
2023/04/30 02:21:54;;;;;;;3.33;0.80;;;;;;;;;;1021317;29;20058;-75
2023/04/30 02:22:25;;;;;;;2.38;1.42;;;;;;;;;;1019944;29;20034;-76
2023/04/30 02:22:56;;;;;;;6.22;2.47;;;;;;;;;;1021184;29;20844;-75
2023/04/30 02:23:26;;;;;;;1.45;0.85;;;;;;;;;;1020853;29;20606;-75
2023/04/30 02:23:56;;;;;;;6.50;1.88;;;;;;;;;;1021124;29;20516;-75
2023/04/30 02:24:27;;;;;;;1.88;1.45;;;;;;;;;;1021763;29;20155;-75
2023/04/30 02:24:57;;;;;;;6.90;0.80;;;;;;;;;;1021207;29;20023;-75
2023/04/30 02:25:29;;;;;;;2.25;0.65;;;;;;;;;;1021500;29;20063;-75
2023/04/30 02:25:59;;;;;;;0.98;0.63;;;;;;;;;;1021034;29;20023;-74
2023/04/30 02:26:30;;;;;;;4.57;2.22;;;;;;;;;;1020630;29;20067;-74
2023/04/30 02:27:00;;;;;;;0.73;0.43;;;;;;;;;;1021302;29;20066;-75
2023/04/30 02:27:31;;;;;;;2.83;1.75;;;;;;;;;;1021448;29;20039;-74
2023/04/30 02:28:02;;;;;;;1.48;1.10;;;;;;;;;;1021283;29;20500;-75
2023/04/30 02:28:32;;;;;;;2.30;1.23;;;;;;;;;;1021988;29;20024;-75
2023/04/30 02:29:03;;;;;;;7.63;0.65;;;;;;;;;;1022523;29;20019;-74
2023/04/30 02:29:33;;;;;;;0.45;0.45;;;;;;;;;;1021094;29;20083;-75
2023/04/30 02:30:05;;;;;;;1.58;1.17;;;;;;;;;;1021471;29;20035;-76
2023/04/30 02:30:35;;;;;;;2.00;1.10;;;;;;;;;;1021325;29;20039;-75
2023/04/30 02:31:06;;;;;;;1.80;0.63;;;;;;;;;;1020978;29;20023;-73
2023/04/30 02:31:36;;;;;;;1.13;0.35;;;;;;;;;;1021422;29;20024;-75
2023/04/30 02:32:07;;;;;;;4.20;1.40;;;;;;;;;;1020971;29;20581;-75
2023/04/30 02:32:38;;;;;;;7.82;1.10;;;;;;;;;;1020998;29;20038;-75
2023/04/30 02:33:11;;;;;;;1.13;1.00;;;;;;;;;;1020977;29;20030;-73
2023/04/30 02:33:41;;;;;;;2.67;0.60;;;;;;;;;;1021537;29;20033;-74
2023/04/30 02:34:12;;;;;;;0.77;0.45;;;;;;;;;;1021539;29;20134;-75
2023/04/30 02:34:42;;;;;;;3.75;1.92;;;;;;;;;;1020194;29;20020;-75
2023/04/30 02:35:13;;;;;;;1.15;0.60;;;;;;;;;;1020456;29;20126;-76
2023/04/30 02:35:43;;;;;;;1.50;1.13;;;;;;;;;;1020728;29;20027;-76
2023/04/30 02:36:14;;;;;;;1.13;0.73;;;;;;;;;;1022132;29;20535;-75
2023/04/30 02:36:44;;;;;;;1.63;1.33;;;;;;;;;;1021346;29;20552;-75
2023/04/30 02:37:15;;;;;;;2.53;1.15;;;;;;;;;;1021139;29;20036;-75
2023/04/30 02:37:45;;;;;;;2.75;1.30;;;;;;;;;;1021991;29;20154;-76
2023/04/30 02:38:16;;;;;;;1.38;0.63;;;;;;;;;;1020310;29;20031;-75
2023/04/30 02:38:46;;;;;;;2.75;1.52;;;;;;;;;;1020607;29;20027;-76
2023/04/30 02:39:17;;;;;;;1.30;1.08;;;;;;;;;;1018677;29;20027;-76
2023/04/30 02:39:48;;;;;;;1.65;1.48;;;;;;;;;;1019277;29;20026;-76
2023/04/30 02:40:18;;;;;;;2.63;0.50;;;;;;;;;;1017815;29;20061;-76
2023/04/30 02:40:49;;;;;;;1.30;0.70;;;;;;;;;;1017438;29;20027;-75
2023/04/30 02:41:20;;;;;;;3.70;2.58;;;;;;;;;;1018128;29;20036;-76
2023/04/30 02:41:50;;;;;;;1.95;0.80;;;;;;;;;;1017640;29;20035;-76
2023/04/30 02:42:21;;;;;;;0.90;0.75;;;;;;;;;;1017597;29;20023;-75
2023/04/30 02:42:53;;;;;;;2.35;0.98;;;;;;;;;;1021873;29;20031;-76
2023/04/30 02:43:24;;;;;;;1.27;1.17;;;;;;;;;;1020090;29;20411;-77
2023/04/30 02:43:54;;;;;;;3.72;1.50;;;;;;;;;;1019706;29;20055;-76
2023/04/30 02:44:25;;;;;;;1.38;0.88;;;;;;;;;;1022173;29;20451;-75
2023/04/30 02:44:55;;;;;;;0.75;0.68;;;;;;;;;;1018920;29;20026;-76
2023/04/30 02:45:26;;;;;;;6.03;0.60;;;;;;;;;;1021378;29;20125;-76
2023/04/30 02:45:56;;;;;;;8.55;1.58;;;;;;;;;;1021073;29;20429;-75
2023/04/30 02:46:27;;;;;;;1.65;1.17;;;;;;;;;;1021825;28;20101;-75
2023/04/30 02:46:57;;;;;;;4.50;0.35;;;;;;;;;;1021563;29;20061;-75
2023/04/30 02:47:28;;;;;;;1.02;0.85;;;;;;;;;;1021483;29;20035;-76
2023/04/30 02:47:58;;;;;;;1.50;0.50;;;;;;;;;;1021175;29;20391;-76
2023/04/30 02:48:29;;;;;;;7.32;0.90;;;;;;;;;;1017282;29;20020;-76
2023/04/30 02:48:59;;;;;;;6.32;1.15;;;;;;;;;;1017463;29;20066;-75
2023/04/30 02:49:30;;;;;;;2.10;0.80;;;;;;;;;;1012531;29;20119;-75
2023/04/30 02:50:00;;;;;;;2.90;1.67;;;;;;;;;;1013159;29;20084;-75
2023/04/30 02:50:31;;;;;;;1.52;0.45;;;;;;;;;;1017691;29;20028;-75
2023/04/30 02:51:03;;;;;;;2.75;0.85;;;;;;;;;;1017218;29;20613;-76
2023/04/30 02:51:33;;;;;;;1.95;1.27;;;;;;;;;;1015947;29;20027;-76
2023/04/30 02:52:04;;;;;;;18.27;1.60;;;;;;;;;;1017290;29;20026;-74
2023/04/30 02:52:35;;;;;;;0.40;0.20;;;;;;;;;;1020755;29;20435;-75
2023/04/30 02:53:05;;;;;;;0.47;0.43;;;;;;;;;;1021502;29;20113;-76
2023/04/30 02:53:36;;;;;;;1.35;1.02;;;;;;;;;;1021696;29;20483;-76
2023/04/30 02:54:06;;;;;;;0.20;0.20;;;;;;;;;;1019780;29;20029;-75
2023/04/30 02:54:37;;;;;;;3.72;1.35;;;;;;;;;;1021718;29;20131;-76
2023/04/30 02:55:08;;;;;;;1.58;1.02;;;;;;;;;;1019979;29;20031;-75
2023/04/30 02:55:38;;;;;;;2.25;0.88;;;;;;;;;;1020953;29;20027;-76
2023/04/30 02:56:08;;;;;;;1.95;0.95;;;;;;;;;;1016745;29;20040;-75
2023/04/30 02:56:39;;;;;;;1.98;0.55;;;;;;;;;;1017678;29;20110;-75
2023/04/30 02:57:10;;;;;;;3.00;2.08;;;;;;;;;;1019238;29;20379;-76
2023/04/30 02:57:40;;;;;;;4.15;1.33;;;;;;;;;;1016737;29;20029;-75
2023/04/30 02:58:11;;;;;;;1.05;0.90;;;;;;;;;;1017530;29;20032;-75
2023/04/30 02:58:42;;;;;;;4.75;2.78;;;;;;;;;;1015629;29;20027;-75
2023/04/30 02:59:13;;;;;;;2.65;1.48;;;;;;;;;;1018650;29;20455;-75
2023/04/30 02:59:44;;;;;;;1.75;0.95;;;;;;;;;;1021785;29;20157;-75
2023/04/30 03:00:16;;;;;;;1.70;1.27;;;;;;;;;;1021933;29;20031;-75
2023/04/30 03:00:46;;;;;;;1.70;1.38;;;;;;;;;;1021473;29;20024;-75
2023/04/30 03:01:17;;;;;;;2.38;1.13;;;;;;;;;;1020292;29;20031;-75
2023/04/30 03:01:47;;;;;;;1.45;0.80;;;;;;;;;;1020059;29;20403;-75
2023/04/30 03:02:22;;;;;;;9.07;1.25;;;;;;;;;;1021543;29;20023;-74
2023/04/30 03:02:52;;;;;;;2.67;1.25;;;;;;;;;;1017792;29;20031;-75
2023/04/30 03:03:23;;;;;;;3.83;0.80;;;;;;;;;;1021396;29;20031;-75
2023/04/30 03:03:53;;;;;;;1.90;0.90;;;;;;;;;;1021432;29;20035;-75
2023/04/30 03:04:24;;;;;;;1.83;0.65;;;;;;;;;;1019512;29;20058;-75
2023/04/30 03:04:55;;;;;;;0.40;0.40;;;;;;;;;;1021895;29;20034;-75
2023/04/30 03:05:25;;;;;;;1.90;1.08;;;;;;;;;;1021606;29;20506;-75
2023/04/30 03:05:58;;;;;;;2.42;1.55;;;;;;;;;;1020107;29;20378;-75
2023/04/30 03:06:28;;;;;;;1.98;1.40;;;;;;;;;;1021708;29;20016;-75
2023/04/30 03:06:59;;;;;;;4.95;1.75;;;;;;;;;;1020534;29;20067;-75
2023/04/30 03:07:29;;;;;;;0.60;0.47;;;;;;;;;;1022001;29;20027;-74
2023/04/30 03:08:00;;;;;;;0.35;0.28;;;;;;;;;;1021488;29;20417;-75
2023/04/30 03:08:30;;;;;;;1.95;0.50;;;;;;;;;;1021413;29;20019;-74
2023/04/30 03:09:01;;;;;;;0.28;0.15;;;;;;;;;;1021231;29;20023;-76
2023/04/30 03:09:31;;;;;;;8.05;2.03;;;;;;;;;;1016825;29;20520;-75
2023/04/30 03:10:02;;;;;;;4.35;2.03;;;;;;;;;;1016728;29;20051;-75
2023/04/30 03:10:32;;;;;;;1.50;0.77;;;;;;;;;;1013512;29;20060;-75
2023/04/30 03:11:02;;;;;;;1.95;1.27;;;;;;;;;;1011976;29;20079;-75
2023/04/30 03:11:36;;;;;;;1.33;0.75;;;;;;;;;;1017883;29;20076;-75
2023/04/30 03:12:06;;;;;;;7.50;1.45;;;;;;;;;;1021767;29;20066;-75
2023/04/30 03:12:37;;;;;;;3.53;2.83;;;;;;;;;;1021928;29;20468;-75
2023/04/30 03:13:07;;;;;;;2.10;0.95;;;;;;;;;;1019516;29;20105;-74
2023/04/30 03:13:38;;;;;;;2.40;1.05;;;;;;;;;;1020365;29;20023;-76
2023/04/30 03:14:08;;;;;;;2.28;0.88;;;;;;;;;;1020233;29;20035;-74